Terminal Aerodrome Forecast
Issued by NWS

Home | Current Version | Previous Version | Text Only | Print | Product List | Glossary On
Versions: 1 2 3 4 5 6 7 8 9 10 11 12 13 14
146
FTUS45 KABQ 260318 AAA
TAFAEG
TAF AMD
KAEG 260318Z 2603/2624 26015KT P6SM BKN120
      TEMPO 2603/2607 26018G26KT FEW060 BKN110
     FM261600 29017G25KT P6SM SKC=

USA.gov is the U.S. government's official web portal to all federal, state and local government web resources and services.